Time;durP1;ratioP1;P1;durP2;ratioP2;P2;SDS_P1;SDS_P2;PMS_P1;PMS_P2;Temp;Humidity;BMP_temperature;BMP_pressure;BME280_temperature;BME280_humidity;BME280_pressure;Samples;Min_cycle;Max_cycle;Signal;HPM_P1;HPM_P2
2022/04/05 00:01:03;;;;;;;12.43;2.73;;;4.70;99.90;;;;;;5093748;28;20229;-81
2022/04/05 00:03:30;;;;;;;10.40;2.40;;;4.70;99.90;;;;;;5095410;28;20291;-81
2022/04/05 00:05:57;;;;;;;9.93;2.57;;;4.70;99.90;;;;;;5076109;28;20242;-82
2022/04/05 00:08:24;;;;;;;17.13;2.97;;;4.60;99.90;;;;;;5092334;28;20637;-81
2022/04/05 00:10:51;;;;;;;15.33;2.90;;;4.60;99.90;;;;;;5094184;28;20225;-80
2022/04/05 00:13:17;;;;;;;12.03;2.80;;;4.70;99.90;;;;;;5094236;28;20707;-80
2022/04/05 00:15:45;;;;;;;14.63;2.67;;;4.60;99.90;;;;;;5094035;28;20489;-81
2022/04/05 00:18:12;;;;;;;12.33;2.70;;;4.60;99.90;;;;;;5083551;28;20252;-80
2022/04/05 00:20:39;;;;;;;12.37;3.00;;;4.60;99.90;;;;;;5087170;28;20219;-81
2022/04/05 00:23:06;;;;;;;13.77;2.70;;;4.60;99.90;;;;;;5095313;28;20223;-82
2022/04/05 00:25:33;;;;;;;11.83;3.23;;;4.60;99.90;;;;;;5095780;28;20217;-81
2022/04/05 00:28:01;;;;;;;10.90;2.40;;;4.60;99.90;;;;;;5078202;28;20626;-81
2022/04/05 00:30:28;;;;;;;11.63;2.87;;;4.60;99.90;;;;;;5077059;28;20267;-81
2022/04/05 00:32:56;;;;;;;15.37;2.53;;;4.60;99.90;;;;;;5096114;28;20260;-81
2022/04/05 00:35:23;;;;;;;19.73;3.50;;;4.60;99.90;;;;;;5095512;28;20234;-80
2022/04/05 00:37:51;;;;;;;16.47;2.70;;;4.60;99.90;;;;;;5093801;28;20230;-81
2022/04/05 00:40:18;;;;;;;14.60;2.87;;;4.60;99.90;;;;;;5077084;28;20305;-81
2022/04/05 00:42:45;;;;;;;13.90;2.80;;;4.50;99.90;;;;;;5096172;28;20231;-81
2022/04/05 00:45:15;;;;;;;14.27;2.50;;;4.50;99.90;;;;;;5097279;28;20240;-81
2022/04/05 00:47:45;;;;;;;14.13;2.80;;;4.50;99.90;;;;;;5082534;28;20223;-81
2022/04/05 00:50:14;;;;;;;17.60;2.83;;;4.50;99.90;;;;;;5091443;28;20320;-83
2022/04/05 00:52:41;;;;;;;15.53;2.67;;;4.50;99.90;;;;;;5068666;28;20268;-82
2022/04/05 00:55:10;;;;;;;12.63;2.33;;;4.50;99.90;;;;;;5070178;28;20222;-82
2022/04/05 00:57:38;;;;;;;16.97;3.10;;;4.50;99.90;;;;;;5073646;28;20703;-82
2022/04/05 01:00:09;;;;;;;12.23;2.60;;;4.40;99.90;;;;;;5074502;28;20338;-81
2022/04/05 01:02:38;;;;;;;13.23;2.40;;;4.40;99.90;;;;;;5076397;28;20232;-82
2022/04/05 01:05:06;;;;;;;15.13;2.77;;;4.40;99.90;;;;;;5074732;28;20691;-82
2022/04/05 01:07:35;;;;;;;14.90;3.33;;;4.40;99.90;;;;;;5077411;28;20574;-82
2022/04/05 01:10:05;;;;;;;10.10;2.70;;;4.40;99.90;;;;;;5070758;28;20226;-83
2022/04/05 01:12:32;;;;;;;15.20;2.63;;;4.40;99.90;;;;;;5085282;28;20250;-81
2022/04/05 01:15:00;;;;;;;13.53;3.00;;;4.40;99.90;;;;;;5089530;28;20305;-82
2022/04/05 01:17:27;;;;;;;13.57;2.67;;;4.30;99.90;;;;;;5090868;28;20236;-81
2022/04/05 01:19:54;;;;;;;15.40;2.30;;;4.30;99.90;;;;;;5093482;28;20236;-81
2022/04/05 01:22:21;;;;;;;7.33;1.90;;;4.40;99.90;;;;;;5092649;28;20232;-81
2022/04/05 01:24:51;;;;;;;9.40;2.10;;;4.30;99.90;;;;;;5074513;28;20226;-81
2022/04/05 01:27:19;;;;;;;8.77;2.20;;;4.30;99.90;;;;;;5092879;28;20229;-81
2022/04/05 01:29:48;;;;;;;13.37;2.23;;;4.30;99.90;;;;;;5092635;28;20297;-80
2022/04/05 01:32:15;;;;;;;9.17;2.10;;;4.30;99.90;;;;;;5071442;28;20702;-82
2022/04/05 01:34:42;;;;;;;13.77;2.40;;;4.30;99.90;;;;;;5091560;28;20264;-81
2022/04/05 01:37:11;;;;;;;10.90;2.60;;;4.30;99.90;;;;;;5094448;28;20229;-81
2022/04/05 01:39:39;;;;;;;11.17;2.03;;;4.30;99.90;;;;;;5092935;28;20229;-81
2022/04/05 01:42:09;;;;;;;10.60;2.30;;;4.30;99.90;;;;;;5073868;28;20229;-81
2022/04/05 01:44:38;;;;;;;9.43;2.20;;;4.40;99.90;;;;;;5072431;28;20269;-80
2022/04/05 01:47:07;;;;;;;9.57;2.27;;;4.40;99.90;;;;;;5071879;28;20226;-82
2022/04/05 01:49:34;;;;;;;12.23;2.47;;;4.40;99.90;;;;;;5073884;28;20233;-82
2022/04/05 01:52:01;;;;;;;11.73;1.87;;;4.40;99.90;;;;;;5096810;28;20239;-82
2022/04/05 01:54:28;;;;;;;10.90;2.10;;;4.40;99.90;;;;;;5094229;28;20989;-82
2022/04/05 01:56:55;;;;;;;10.33;2.13;;;4.40;99.90;;;;;;5077250;28;20628;-83
2022/04/05 01:59:25;;;;;;;13.43;2.90;;;4.40;99.90;;;;;;5093903;28;20233;-83
2022/04/05 02:01:52;;;;;;;10.00;2.20;;;4.40;99.90;;;;;;5074692;28;20506;-80
2022/04/05 02:04:19;;;;;;;14.07;3.17;;;4.40;99.90;;;;;;5090364;28;20233;-81
2022/04/05 02:06:47;;;;;;;10.43;2.07;;;4.40;99.90;;;;;;5076061;28;20462;-81
2022/04/05 02:09:15;;;;;;;12.57;2.47;;;4.40;99.90;;;;;;5072398;28;20226;-81
2022/04/05 02:11:43;;;;;;;11.17;2.30;;;4.40;99.90;;;;;;5087687;28;20237;-81
2022/04/05 02:14:26;;;;;;;9.87;1.70;;;4.40;99.90;;;;;;5073051;28;20231;-84
2022/04/05 02:16:55;;;;;;;11.17;1.80;;;4.40;99.90;;;;;;5072279;28;20227;-81
2022/04/05 02:19:22;;;;;;;7.17;2.00;;;4.30;99.90;;;;;;5075261;28;20225;-81
2022/04/05 02:21:50;;;;;;;6.87;2.00;;;4.20;99.90;;;;;;5076858;28;20236;-81
2022/04/05 02:24:18;;;;;;;4.97;1.40;;;4.30;99.90;;;;;;5074147;28;20253;-82
2022/04/05 02:26:46;;;;;;;10.87;1.77;;;4.40;99.90;;;;;;5086144;28;20234;-82
2022/04/05 02:29:15;;;;;;;6.87;1.60;;;4.30;99.90;;;;;;5073091;28;20637;-82
2022/04/05 02:31:46;;;;;;;8.77;2.00;;;4.20;99.90;;;;;;5074089;28;20225;-82
2022/04/05 02:34:14;;;;;;;10.00;1.80;;;4.20;99.90;;;;;;5072810;28;20222;-81
2022/04/05 02:36:48;;;;;;;7.30;1.60;;;4.20;99.90;;;;;;5067355;28;20815;-80
2022/04/05 02:39:17;;;;;;;7.77;1.60;;;4.10;99.90;;;;;;5066483;28;20226;-80
2022/04/05 02:41:46;;;;;;;6.83;1.70;;;4.10;99.90;;;;;;5090100;28;20916;-82
2022/04/05 02:44:14;;;;;;;6.70;1.27;;;4.00;99.90;;;;;;5067668;28;20222;-82
2022/04/05 02:46:42;;;;;;;7.13;1.40;;;4.00;99.90;;;;;;5069808;28;20691;-82
2022/04/05 02:49:13;;;;;;;9.53;1.70;;;4.00;99.90;;;;;;5072525;28;20221;-82
2022/04/05 02:51:41;;;;;;;7.80;1.40;;;3.90;99.90;;;;;;5073770;28;20237;-82
2022/04/05 02:54:15;;;;;;;4.33;1.40;;;3.80;99.90;;;;;;5066441;28;20237;-82
2022/04/05 02:56:43;;;;;;;6.57;1.40;;;3.70;99.90;;;;;;5070279;28;20226;-82
2022/04/05 02:59:11;;;;;;;8.97;1.53;;;3.70;99.90;;;;;;5083049;28;20660;-83
2022/04/05 03:01:39;;;;;;;5.20;1.50;;;3.60;99.90;;;;;;5070206;28;20238;-81
2022/04/05 03:04:13;;;;;;;8.50;1.40;;;3.50;99.90;;;;;;5069331;28;20994;-82
2022/04/05 03:06:40;;;;;;;6.50;1.33;;;3.40;99.90;;;;;;5088125;28;20259;-81
2022/04/05 03:09:09;;;;;;;5.30;1.40;;;3.40;99.90;;;;;;5070667;28;20234;-81
2022/04/05 03:11:37;;;;;;;7.10;1.30;;;3.40;99.90;;;;;;5067751;28;21449;-82
2022/04/05 03:14:05;;;;;;;8.27;1.30;;;3.30;99.90;;;;;;5086725;28;20248;-83
2022/04/05 03:16:37;;;;;;;8.80;1.40;;;3.30;99.90;;;;;;5068532;28;20233;-83
2022/04/05 03:19:05;;;;;;;7.73;1.40;;;3.30;99.90;;;;;;5073220;28;20275;-82
2022/04/05 03:21:34;;;;;;;7.37;2.00;;;3.30;99.90;;;;;;5075486;28;20303;-82
2022/04/05 03:24:01;;;;;;;3.93;1.07;;;3.20;99.90;;;;;;5076215;28;20212;-82
2022/04/05 03:26:28;;;;;;;5.87;1.77;;;3.20;99.90;;;;;;5072670;28;20507;-82
2022/04/05 03:28:54;;;;;;;6.83;1.73;;;3.10;99.90;;;;;;5076099;28;20224;-83
2022/04/05 03:31:21;;;;;;;9.10;2.10;;;3.10;99.90;;;;;;5071444;28;20932;-84
2022/04/05 03:33:52;;;;;;;5.80;1.33;;;3.10;99.90;;;;;;5075198;28;20221;-84
2022/04/05 03:36:19;;;;;;;9.53;2.07;;;3.00;99.90;;;;;;5065897;28;20252;-83
2022/04/05 03:38:48;;;;;;;6.00;1.50;;;3.00;99.90;;;;;;5073453;28;20271;-82
2022/04/05 03:41:16;;;;;;;10.73;2.23;;;3.00;99.90;;;;;;5090827;28;20232;-83
2022/04/05 03:43:44;;;;;;;10.80;2.50;;;3.00;99.90;;;;;;5073320;28;20309;-83
2022/04/05 03:46:15;;;;;;;10.27;1.43;;;2.90;99.90;;;;;;5069925;28;20312;-82
2022/04/05 03:48:43;;;;;;;7.27;1.50;;;2.90;99.90;;;;;;5079643;28;20233;-81
2022/04/05 03:51:12;;;;;;;10.53;1.97;;;2.90;99.90;;;;;;5069810;28;20729;-80
2022/04/05 03:53:50;;;;;;;6.17;1.67;;;2.90;99.90;;;;;;5073579;28;20435;-82
2022/04/05 03:56:19;;;;;;;9.00;1.70;;;2.80;99.90;;;;;;5075692;28;20270;-82
2022/04/05 03:58:47;;;;;;;11.00;1.60;;;2.80;99.90;;;;;;5073148;28;20225;-83
2022/04/05 04:01:15;;;;;;;8.27;1.90;;;2.80;99.90;;;;;;5074021;28;20254;-82
2022/04/05 04:03:42;;;;;;;11.40;1.80;;;2.80;99.90;;;;;;5075901;28;20290;-82
2022/04/05 04:06:09;;;;;;;7.07;1.97;;;2.80;99.90;;;;;;5073324;28;20215;-83
2022/04/05 04:08:37;;;;;;;7.70;1.70;;;2.70;99.90;;;;;;5074741;28;20254;-83
2022/04/05 04:11:05;;;;;;;8.57;1.97;;;2.70;99.90;;;;;;5076372;28;20218;-82
2022/04/05 04:13:33;;;;;;;9.30;1.43;;;2.70;99.90;;;;;;5074777;28;20294;-81
2022/04/05 04:16:04;;;;;;;7.80;1.80;;;2.70;99.90;;;;;;5078352;28;20227;-81
2022/04/05 04:18:32;;;;;;;9.97;1.93;;;2.70;99.90;;;;;;5072913;28;20236;-82
2022/04/05 04:21:00;;;;;;;7.70;1.60;;;2.70;99.90;;;;;;5068048;28;20225;-82
2022/04/05 04:23:27;;;;;;;7.67;1.53;;;2.60;99.90;;;;;;5088450;28;20229;-82
2022/04/05 04:25:56;;;;;;;8.20;2.00;;;2.60;99.90;;;;;;5071130;28;20234;-82
2022/04/05 04:28:24;;;;;;;13.87;2.53;;;2.60;99.90;;;;;;5073743;28;20887;-81
2022/04/05 04:30:51;;;;;;;19.37;3.13;;;2.60;99.90;;;;;;5074558;28;20229;-82
2022/04/05 04:33:18;;;;;;;16.07;2.63;;;2.60;99.90;;;;;;5076963;28;20841;-82
2022/04/05 04:35:45;;;;;;;11.87;2.47;;;2.50;99.90;;;;;;5074373;28;20239;-83
2022/04/05 04:38:12;;;;;;;8.60;2.50;;;2.50;99.90;;;;;;5069613;28;20242;-86
2022/04/05 04:40:40;;;;;;;7.73;1.60;;;2.50;99.90;;;;;;5074277;28;20257;-79
2022/04/05 04:43:07;;;;;;;10.57;1.93;;;2.50;99.90;;;;;;5072287;28;20568;-81
2022/04/05 04:45:36;;;;;;;9.97;1.70;;;2.50;99.90;;;;;;5073589;28;20249;-81
2022/04/05 04:48:03;;;;;;;8.67;1.83;;;2.50;99.90;;;;;;5074205;28;20851;-82
2022/04/05 04:50:29;;;;;;;14.40;2.17;;;2.40;99.90;;;;;;5074390;28;20225;-82
2022/04/05 04:52:56;;;;;;;10.57;1.73;;;2.50;99.90;;;;;;5071365;28;20226;-82
2022/04/05 04:55:24;;;;;;;9.13;2.00;;;2.50;99.90;;;;;;5070645;28;20237;-82
2022/04/05 04:57:51;;;;;;;14.70;2.57;;;2.40;99.90;;;;;;5071769;28;20286;-81
2022/04/05 05:00:18;;;;;;;10.43;2.00;;;2.40;99.90;;;;;;5088946;28;20224;-81
2022/04/05 05:02:47;;;;;;;11.27;2.13;;;2.50;99.90;;;;;;5090052;28;20598;-81
2022/04/05 05:05:16;;;;;;;7.77;1.93;;;2.50;99.90;;;;;;5089203;28;20452;-82
2022/04/05 05:07:47;;;;;;;7.70;1.90;;;2.50;99.90;;;;;;5071858;28;20254;-81
2022/04/05 05:10:14;;;;;;;13.13;2.20;;;2.50;99.90;;;;;;5070926;28;20341;-82
2022/04/05 05:12:42;;;;;;;4.87;1.60;;;2.50;99.90;;;;;;5068028;28;20310;-81
2022/04/05 05:15:10;;;;;;;12.10;2.07;;;2.50;99.90;;;;;;5088120;28;20271;-81
2022/04/05 05:17:36;;;;;;;10.83;2.07;;;2.60;99.90;;;;;;5072112;28;20913;-81
2022/04/05 05:20:05;;;;;;;15.17;2.30;;;2.60;99.90;;;;;;5089010;28;20229;-81
2022/04/05 05:22:32;;;;;;;10.00;1.93;;;2.70;99.90;;;;;;5088454;28;20815;-81
2022/04/05 05:24:59;;;;;;;8.53;1.80;;;2.80;99.90;;;;;;5071943;28;20270;-82
2022/04/05 05:27:26;;;;;;;10.77;2.43;;;2.80;99.90;;;;;;5071664;28;20237;-80
2022/04/05 05:29:53;;;;;;;7.67;2.23;;;3.00;99.90;;;;;;5069331;28;20235;-79
2022/04/05 05:32:20;;;;;;;11.67;1.93;;;3.00;99.90;;;;;;5088794;28;20226;-81
2022/04/05 05:34:47;;;;;;;10.40;2.43;;;3.10;99.90;;;;;;5089426;28;20223;-81
2022/04/05 05:37:15;;;;;;;8.03;2.07;;;3.20;99.90;;;;;;5090610;28;20753;-80
2022/04/05 05:39:42;;;;;;;8.43;2.13;;;3.30;99.90;;;;;;5072823;28;20948;-81
2022/04/05 05:42:10;;;;;;;10.20;2.10;;;3.30;99.90;;;;;;5072497;28;20922;-80
2022/04/05 05:44:37;;;;;;;7.57;2.00;;;3.40;99.90;;;;;;5090610;28;20314;-81
2022/04/05 05:47:05;;;;;;;8.33;1.87;;;3.40;99.90;;;;;;5071230;28;20229;-81
2022/04/05 05:49:32;;;;;;;8.60;1.80;;;3.50;99.90;;;;;;5089356;28;20257;-81
2022/04/05 05:51:59;;;;;;;12.20;1.77;;;3.60;99.90;;;;;;5072388;28;20239;-81
2022/04/05 05:54:27;;;;;;;10.63;2.43;;;3.70;99.90;;;;;;5070793;28;20229;-81
2022/04/05 05:56:53;;;;;;;6.63;1.40;;;3.80;99.90;;;;;;5091030;28;20764;-81
2022/04/05 05:59:22;;;;;;;6.77;1.33;;;3.90;99.90;;;;;;5072052;28;20665;-81
2022/04/05 06:01:49;;;;;;;7.50;1.50;;;4.10;99.90;;;;;;5092357;28;20246;-81
2022/04/05 06:04:16;;;;;;;4.33;1.30;;;4.10;99.90;;;;;;5089160;28;20224;-81
2022/04/05 06:06:44;;;;;;;8.77;1.50;;;4.20;99.90;;;;;;5073625;28;20234;-81
2022/04/05 06:09:11;;;;;;;8.13;1.47;;;4.30;99.90;;;;;;5073134;28;20229;-81
2022/04/05 06:11:39;;;;;;;5.43;1.33;;;4.40;99.90;;;;;;5076648;28;20308;-81
2022/04/05 06:14:06;;;;;;;7.10;1.50;;;4.50;99.90;;;;;;5090129;28;20600;-81
2022/04/05 06:16:33;;;;;;;6.80;1.37;;;4.70;99.90;;;;;;5072330;28;20233;-81
2022/04/05 06:18:59;;;;;;;6.27;1.70;;;4.80;99.90;;;;;;5072893;28;20222;-81
2022/04/05 06:21:26;;;;;;;7.73;1.63;;;4.90;99.90;;;;;;5072726;28;20216;-81
2022/04/05 06:23:53;;;;;;;6.57;1.40;;;5.00;99.90;;;;;;5091213;28;20244;-81
2022/04/05 06:26:25;;;;;;;5.70;2.03;;;5.00;99.90;;;;;;5076858;28;20307;-81
2022/04/05 06:28:56;;;;;;;6.00;1.83;;;5.10;99.90;;;;;;5048877;28;20236;-81
2022/04/05 06:31:23;;;;;;;9.97;2.50;;;5.20;99.90;;;;;;5069500;28;20232;-82
2022/04/05 06:33:50;;;;;;;6.47;1.80;;;5.20;99.90;;;;;;5077286;28;20288;-81
2022/04/05 06:36:17;;;;;;;4.90;1.57;;;5.30;99.90;;;;;;5070289;28;20252;-82
2022/04/05 06:38:44;;;;;;;6.40;1.60;;;5.30;99.90;;;;;;5072940;28;20308;-81
2022/04/05 06:41:10;;;;;;;6.83;1.37;;;5.40;99.90;;;;;;5073850;28;20220;-81
2022/04/05 06:43:38;;;;;;;7.27;1.50;;;5.50;99.90;;;;;;5091085;28;20453;-81
2022/04/05 06:46:06;;;;;;;6.37;1.77;;;5.60;99.90;;;;;;5087644;28;20224;-81
2022/04/05 06:48:33;;;;;;;10.97;1.80;;;5.70;99.90;;;;;;5068978;28;20251;-81
2022/04/05 06:51:00;;;;;;;8.20;1.80;;;5.80;99.90;;;;;;5084626;28;20896;-81
2022/04/05 06:53:27;;;;;;;12.97;1.97;;;5.90;99.90;;;;;;5070188;28;20225;-81
2022/04/05 06:55:54;;;;;;;9.27;1.97;;;6.00;99.90;;;;;;5089551;28;20251;-81
2022/04/05 06:58:21;;;;;;;7.60;2.50;;;6.00;99.90;;;;;;5070368;28;20228;-82
2022/04/05 07:00:48;;;;;;;8.70;2.20;;;6.00;99.90;;;;;;5072956;28;20266;-81
2022/04/05 07:03:16;;;;;;;8.27;1.93;;;6.10;99.90;;;;;;5071894;28;20307;-81
2022/04/05 07:05:42;;;;;;;7.30;1.70;;;6.20;99.90;;;;;;5074757;28;20521;-81
2022/04/05 07:08:10;;;;;;;8.27;1.93;;;6.30;99.90;;;;;;5072831;28;20221;-81
2022/04/05 07:10:38;;;;;;;7.23;1.60;;;6.40;99.90;;;;;;5091152;28;20244;-81
2022/04/05 07:13:05;;;;;;;5.80;1.93;;;6.50;99.90;;;;;;5073856;28;20232;-81
2022/04/05 07:15:32;;;;;;;9.27;2.07;;;6.50;99.90;;;;;;5087432;28;20244;-81
2022/04/05 07:17:59;;;;;;;13.37;2.53;;;6.50;99.90;;;;;;5071275;28;20248;-81
2022/04/05 07:20:27;;;;;;;8.33;2.33;;;6.50;99.90;;;;;;5068932;28;20227;-81
2022/04/05 07:22:53;;;;;;;8.33;1.93;;;6.50;99.90;;;;;;5072196;28;20259;-81
2022/04/05 07:25:21;;;;;;;4.73;1.70;;;6.50;99.90;;;;;;5078117;28;20231;-81
2022/04/05 07:27:48;;;;;;;9.63;1.80;;;6.60;99.90;;;;;;5073769;28;21031;-81
2022/04/05 07:30:16;;;;;;;8.93;2.07;;;6.60;99.90;;;;;;5071446;28;20251;-81
2022/04/05 07:32:44;;;;;;;6.83;1.70;;;6.70;99.90;;;;;;5076914;28;20256;-81
2022/04/05 07:35:13;;;;;;;6.17;1.70;;;6.70;99.90;;;;;;5064932;28;20261;-81
2022/04/05 07:37:42;;;;;;;6.40;1.83;;;6.90;99.90;;;;;;5070230;28;20231;-82
2022/04/05 07:40:10;;;;;;;7.90;1.40;;;7.00;99.90;;;;;;5089812;28;20365;-82
2022/04/05 07:42:38;;;;;;;6.83;1.50;;;7.00;99.90;;;;;;5072178;28;20317;-81
2022/04/05 07:45:06;;;;;;;9.30;1.90;;;7.10;99.90;;;;;;5070304;28;20234;-81
2022/04/05 07:47:33;;;;;;;8.37;1.50;;;7.30;99.90;;;;;;5090248;28;20742;-81
2022/04/05 07:50:00;;;;;;;7.13;1.87;;;7.50;99.90;;;;;;5071038;28;20288;-81
2022/04/05 07:52:29;;;;;;;7.30;1.70;;;7.70;99.90;;;;;;5089088;28;20771;-81
2022/04/05 07:54:58;;;;;;;4.23;1.53;;;8.00;99.90;;;;;;5082859;28;20224;-81
2022/04/05 07:57:24;;;;;;;15.80;2.40;;;8.30;99.90;;;;;;5068828;28;20737;-81
2022/04/05 07:59:51;;;;;;;4.60;1.40;;;8.60;99.70;;;;;;5071275;28;20245;-81
2022/04/05 08:02:18;;;;;;;2.73;1.20;;;8.90;99.80;;;;;;5064051;28;20318;-81
2022/04/05 08:04:45;;;;;;;7.00;1.23;;;9.30;99.60;;;;;;5072951;28;20955;-81
2022/04/05 08:07:12;;;;;;;6.90;1.70;;;9.60;98.90;;;;;;5085313;28;20727;-82
2022/04/05 08:09:39;;;;;;;4.00;1.70;;;9.90;98.70;;;;;;5092269;28;20233;-82
2022/04/05 08:12:08;;;;;;;4.67;1.57;;;10.10;98.00;;;;;;5092750;28;20227;-81
2022/04/05 08:14:34;;;;;;;5.63;1.43;;;10.30;97.30;;;;;;5073304;28;20234;-82
2022/04/05 08:17:01;;;;;;;6.13;1.47;;;10.50;97.20;;;;;;5074285;28;20214;-82
2022/04/05 08:19:30;;;;;;;6.93;1.63;;;10.60;96.50;;;;;;5092204;28;20250;-82
2022/04/05 08:21:57;;;;;;;3.67;1.23;;;10.70;96.40;;;;;;5074703;28;20227;-82
2022/04/05 08:24:24;;;;;;;7.07;1.50;;;10.80;96.20;;;;;;5081675;28;20225;-82
2022/04/05 08:26:51;;;;;;;7.87;1.70;;;10.80;95.60;;;;;;5074351;28;20997;-82
2022/04/05 08:29:19;;;;;;;7.07;1.87;;;10.80;94.70;;;;;;5090821;28;20235;-82
2022/04/05 08:31:45;;;;;;;6.47;1.43;;;10.60;93.90;;;;;;5090918;28;20250;-80
2022/04/05 08:34:12;;;;;;;4.47;1.13;;;10.40;94.00;;;;;;5070432;28;21046;-82
2022/04/05 08:36:39;;;;;;;5.40;1.50;;;10.10;94.10;;;;;;5087741;28;20233;-85
2022/04/05 08:39:05;;;;;;;8.90;1.70;;;9.80;94.40;;;;;;5086777;28;20232;-85
2022/04/05 08:41:36;;;;;;;6.73;1.67;;;9.60;94.50;;;;;;5067823;28;20558;-85
2022/04/05 08:44:03;;;;;;;3.17;1.30;;;9.30;94.60;;;;;;5068224;28;20237;-85
2022/04/05 08:46:34;;;;;;;7.20;1.73;;;9.10;94.90;;;;;;5068397;28;20229;-84
2022/04/05 08:49:01;;;;;;;5.13;1.57;;;8.90;95.10;;;;;;5086424;28;20229;-83
2022/04/05 08:51:31;;;;;;;10.87;1.77;;;8.70;95.50;;;;;;5067866;28;20228;-84
2022/04/05 08:53:58;;;;;;;5.00;1.43;;;8.60;95.80;;;;;;5068798;28;20225;-85
2022/04/05 08:56:26;;;;;;;5.80;1.30;;;8.60;96.10;;;;;;5068134;28;20306;-84
2022/04/05 08:58:54;;;;;;;2.53;0.90;;;8.50;96.10;;;;;;5068871;28;20234;-84
2022/04/05 09:01:21;;;;;;;2.47;1.00;;;8.50;95.40;;;;;;5086386;28;20284;-83
2022/04/05 09:03:50;;;;;;;3.20;1.00;;;8.30;95.10;;;;;;5068569;28;20333;-84
2022/04/05 09:06:31;;;;;;;5.60;1.57;;;8.20;95.40;;;;;;5085838;28;20330;-83
2022/04/05 09:09:08;;;;;;;4.67;1.10;;;7.90;95.60;;;;;;5068808;28;20371;-83
2022/04/05 09:11:37;;;;;;;3.43;0.80;;;7.70;96.70;;;;;;5057049;28;20312;-85
2022/04/05 09:14:04;;;;;;;4.57;0.80;;;7.50;97.30;;;;;;5064065;28;20231;-82
2022/04/05 09:16:34;;;;;;;2.37;0.63;;;7.40;97.90;;;;;;5085366;28;20314;-84
2022/04/05 09:19:11;;;;;;;2.50;0.73;;;7.40;98.10;;;;;;5068366;28;20704;-84
2022/04/05 09:21:52;;;;;;;2.93;0.70;;;7.50;98.70;;;;;;5068102;28;20248;-84
2022/04/05 09:24:19;;;;;;;1.93;0.77;;;7.60;99.10;;;;;;5066697;28;20765;-84
2022/04/05 09:26:46;;;;;;;2.57;0.60;;;7.90;99.20;;;;;;5068128;28;20681;-84
2022/04/05 09:29:14;;;;;;;3.03;0.73;;;8.10;99.10;;;;;;5085495;28;20290;-84
2022/04/05 09:31:47;;;;;;;5.17;1.10;;;8.40;98.90;;;;;;5068087;28;20820;-84
2022/04/05 09:34:19;;;;;;;4.87;0.93;;;8.60;98.30;;;;;;5069826;28;20243;-83
2022/04/05 09:36:49;;;;;;;7.67;0.90;;;8.90;98.10;;;;;;5081546;28;20246;-84
2022/04/05 09:39:19;;;;;;;4.93;1.27;;;9.10;97.70;;;;;;5066676;28;20221;-84
2022/04/05 09:41:47;;;;;;;5.70;1.00;;;9.20;97.60;;;;;;5085560;28;20304;-84
2022/04/05 09:44:25;;;;;;;5.03;1.10;;;9.40;97.10;;;;;;5084929;28;20902;-84
2022/04/05 09:47:03;;;;;;;3.03;0.80;;;9.50;96.20;;;;;;5067196;28;20233;-84
2022/04/05 09:49:34;;;;;;;4.80;1.20;;;9.50;95.60;;;;;;5085285;28;20281;-84
2022/04/05 09:52:01;;;;;;;6.00;1.13;;;9.50;95.90;;;;;;5084321;28;20234;-84
2022/04/05 09:54:30;;;;;;;1.87;0.80;;;9.40;95.80;;;;;;5066568;28;20941;-84
2022/04/05 09:57:01;;;;;;;5.90;0.97;;;9.40;95.90;;;;;;5085585;28;20226;-84
2022/04/05 09:59:38;;;;;;;2.63;0.90;;;9.30;96.00;;;;;;5067356;28;20228;-84
2022/04/05 10:02:12;;;;;;;3.57;0.87;;;9.10;96.10;;;;;;5085868;28;21024;-84
2022/04/05 10:05:04;;;;;;;3.20;1.00;;;8.90;96.40;;;;;;5064326;28;20347;-84
2022/04/05 10:07:32;;;;;;;3.90;1.00;;;8.70;96.70;;;;;;5066838;28;20249;-84
2022/04/05 10:10:00;;;;;;;4.23;0.97;;;8.60;96.70;;;;;;5067462;28;20301;-83
2022/04/05 10:12:28;;;;;;;4.07;0.80;;;8.40;96.80;;;;;;5066853;28;20300;-83
2022/04/05 10:14:56;;;;;;;4.47;1.07;;;8.20;96.90;;;;;;5083566;28;20232;-84
2022/04/05 10:17:26;;;;;;;3.17;0.83;;;8.10;97.30;;;;;;5065375;28;20335;-84
2022/04/05 10:19:56;;;;;;;4.80;1.50;;;8.00;97.90;;;;;;5066318;28;20215;-84
2022/04/05 10:22:25;;;;;;;5.53;1.30;;;7.90;98.30;;;;;;5068206;28;20219;-84
2022/04/05 10:24:53;;;;;;;5.60;1.30;;;7.90;98.10;;;;;;5066957;28;20788;-84
2022/04/05 10:27:22;;;;;;;4.00;1.10;;;7.90;98.10;;;;;;5066219;28;20313;-83
2022/04/05 10:29:56;;;;;;;4.63;1.20;;;7.80;98.20;;;;;;5083885;28;20280;-83
2022/04/05 10:32:31;;;;;;;4.30;1.23;;;7.70;98.20;;;;;;5071428;28;20241;-84
2022/04/05 10:35:03;;;;;;;8.73;1.50;;;7.70;98.70;;;;;;5065838;28;20236;-84
2022/04/05 10:37:33;;;;;;;5.33;1.37;;;7.70;99.00;;;;;;5065877;28;20228;-84
2022/04/05 10:40:15;;;;;;;5.37;1.50;;;7.80;99.50;;;;;;5075519;28;20224;-84
2022/04/05 10:42:43;;;;;;;3.93;1.50;;;7.90;99.90;;;;;;5084004;28;20220;-84
2022/04/05 10:45:13;;;;;;;7.80;1.87;;;8.10;99.90;;;;;;5066155;28;20324;-84
2022/04/05 10:48:00;;;;;;;6.80;1.60;;;8.30;99.90;;;;;;5082554;28;20320;-84
2022/04/05 10:50:29;;;;;;;3.77;1.47;;;8.40;99.20;;;;;;5065455;28;20271;-84
2022/04/05 10:53:15;;;;;;;6.33;1.20;;;8.60;98.70;;;;;;5079571;28;20248;-84
2022/04/05 10:56:16;;;;;;;4.37;1.00;;;8.70;98.50;;;;;;5066036;28;20310;-85
2022/04/05 10:59:18;;;;;;;4.40;1.00;;;8.70;98.00;;;;;;5065864;28;20646;-84
2022/04/05 11:01:45;;;;;;;3.83;0.90;;;8.80;97.50;;;;;;5049334;28;20224;-84
2022/04/05 11:04:33;;;;;;;5.03;1.07;;;8.70;97.60;;;;;;5065695;28;20221;-83
2022/04/05 11:07:11;;;;;;;4.80;1.40;;;8.60;97.30;;;;;;5066435;28;20229;-85
2022/04/05 11:09:50;;;;;;;3.43;1.20;;;8.50;97.20;;;;;;5083888;28;20764;-84
2022/04/05 11:12:21;;;;;;;2.77;1.07;;;8.40;97.60;;;;;;5065361;28;20271;-84
2022/04/05 11:14:53;;;;;;;2.60;1.10;;;8.20;97.90;;;;;;5064533;28;20326;-84
2022/04/05 11:17:22;;;;;;;3.57;1.00;;;8.00;98.10;;;;;;5065663;28;20272;-84
2022/04/05 11:19:51;;;;;;;3.77;1.07;;;7.90;98.20;;;;;;5084692;28;20251;-84
2022/04/05 11:22:33;;;;;;;5.37;0.97;;;7.80;98.50;;;;;;5083338;28;20582;-84
2022/04/05 11:25:06;;;;;;;3.20;1.10;;;7.70;99.00;;;;;;5080389;28;20653;-84
2022/04/05 11:27:37;;;;;;;4.97;1.30;;;7.60;98.90;;;;;;5083939;28;20325;-84
2022/04/05 11:30:38;;;;;;;2.43;1.20;;;7.60;99.30;;;;;;5083873;28;20233;-85
2022/04/05 11:33:19;;;;;;;4.73;1.13;;;7.50;99.90;;;;;;5061768;28;20310;-83
2022/04/05 11:35:48;;;;;;;4.60;1.07;;;7.50;99.50;;;;;;5066917;28;20719;-83
2022/04/05 11:38:27;;;;;;;8.70;1.43;;;7.40;99.40;;;;;;5066429;28;20598;-84
2022/04/05 11:40:58;;;;;;;3.37;1.00;;;7.30;99.50;;;;;;5069926;28;20283;-84
2022/04/05 11:43:27;;;;;;;3.57;0.90;;;7.30;99.70;;;;;;5069521;28;20226;-84
2022/04/05 11:45:56;;;;;;;4.20;0.77;;;7.20;99.80;;;;;;5062365;28;20290;-84
2022/04/05 11:48:26;;;;;;;3.00;1.10;;;7.20;99.60;;;;;;5070869;28;20244;-84
2022/04/05 11:50:53;;;;;;;2.80;0.97;;;7.20;99.50;;;;;;5071471;28;20235;-84
2022/04/05 11:53:20;;;;;;;2.90;0.90;;;7.10;99.50;;;;;;5086243;28;20228;-84
2022/04/05 11:56:05;;;;;;;5.77;1.30;;;7.00;99.70;;;;;;5067961;28;20314;-84
2022/04/05 11:58:34;;;;;;;3.67;0.90;;;7.00;99.90;;;;;;5072896;28;20302;-84
2022/04/05 12:01:03;;;;;;;2.63;0.97;;;7.00;99.80;;;;;;5077669;28;20229;-84
2022/04/05 12:03:30;;;;;;;3.83;1.20;;;7.00;99.90;;;;;;5073779;28;20225;-84
2022/04/05 12:05:57;;;;;;;1.73;0.90;;;6.90;99.90;;;;;;5086279;28;20333;-85
2022/04/05 12:08:23;;;;;;;5.43;1.47;;;6.90;99.90;;;;;;5069378;28;20231;-84
2022/04/05 12:10:50;;;;;;;4.30;1.33;;;6.90;99.90;;;;;;5087374;28;20248;-85
2022/04/05 12:13:27;;;;;;;4.30;1.10;;;7.00;99.90;;;;;;5066405;28;20306;-85
2022/04/05 12:15:59;;;;;;;3.10;1.03;;;7.00;99.90;;;;;;5086177;28;20238;-85
2022/04/05 12:18:27;;;;;;;5.40;1.00;;;7.10;99.90;;;;;;5071723;28;20233;-85
2022/04/05 12:20:59;;;;;;;4.13;1.10;;;7.20;99.90;;;;;;5074349;28;20226;-85
2022/04/05 12:23:30;;;;;;;5.80;1.30;;;7.20;99.90;;;;;;5069410;28;20231;-85
2022/04/05 12:26:02;;;;;;;4.57;1.10;;;7.30;99.90;;;;;;5069302;28;20230;-86
2022/04/05 12:28:30;;;;;;;5.47;1.10;;;7.30;99.90;;;;;;5085860;28;20235;-84
2022/04/05 12:31:04;;;;;;;3.73;0.93;;;7.40;99.90;;;;;;5086090;28;20830;-85
2022/04/05 12:33:31;;;;;;;2.30;0.80;;;7.40;99.90;;;;;;5066523;28;20230;-84
2022/04/05 12:35:58;;;;;;;3.67;0.90;;;7.50;99.90;;;;;;5068130;28;20630;-85
2022/04/05 12:38:25;;;;;;;4.20;1.07;;;7.50;99.90;;;;;;5074448;28;20226;-85
2022/04/05 12:40:52;;;;;;;3.57;1.00;;;7.60;99.90;;;;;;5069002;28;20869;-85
2022/04/05 12:43:20;;;;;;;3.93;0.80;;;7.60;99.90;;;;;;5060738;28;20231;-85
2022/04/05 12:45:50;;;;;;;1.80;0.90;;;7.70;99.90;;;;;;5084327;28;20226;-86
2022/04/05 12:48:19;;;;;;;2.07;0.90;;;7.70;99.90;;;;;;5066976;28;20575;-85
2022/04/05 12:50:49;;;;;;;3.87;1.13;;;7.80;99.90;;;;;;5084754;28;20646;-85
2022/04/05 12:53:24;;;;;;;4.80;1.00;;;7.80;99.90;;;;;;5085197;28;20307;-86
2022/04/05 12:56:01;;;;;;;4.00;1.10;;;7.90;99.90;;;;;;5086987;28;20223;-85
2022/04/05 12:58:35;;;;;;;5.83;1.40;;;7.90;99.90;;;;;;5084078;28;20242;-85
2022/04/05 13:01:18;;;;;;;2.70;0.90;;;7.90;99.90;;;;;;5075090;28;20227;-85
2022/04/05 13:03:45;;;;;;;4.37;1.13;;;7.90;99.90;;;;;;5074123;28;20242;-85